Terminal Aerodrome Forecast
Issued by NWS Cleveland, OH

Current Version | Previous Version | Text Only | Print | Product List | Glossary On
Versions: 1 2 3 4 5 6 7 8 9 10 11 12 13 14 15
000
FTUS41 KCLE 261739
TAFMFD
TAF
KMFD 261739Z 2618/2718 18010G18KT P6SM SCT035
     FM262200 20006KT P6SM SCT050 BKN150
     FM270000 17005KT P6SM VCSH BKN070
     FM270200 20007KT P6SM BKN070
     FM270800 20004KT 4SM BR BKN250
     FM271300 20006KT P6SM BKN250=

USA.gov is the U.S. government's official web portal to all federal, state and local government web resources and services.